createdAt,value
2018-06-22T00:02:12.531Z,13.30
2018-06-22T00:04:41.907Z,12.90
2018-06-22T00:07:11.269Z,12.50
2018-06-22T00:09:40.633Z,12.50
2018-06-22T00:12:10.090Z,12.50
2018-06-22T00:14:39.554Z,12.70
2018-06-22T00:17:08.979Z,12.90
2018-06-22T00:19:38.346Z,13.20
2018-06-22T00:22:07.695Z,13.20
2018-06-22T00:24:37.049Z,13.30
2018-06-22T00:27:06.863Z,13.30
2018-06-22T00:29:36.187Z,13.20
2018-06-22T00:32:05.885Z,12.50
2018-06-22T00:34:35.195Z,12.10
2018-06-22T00:37:04.528Z,12.10
2018-06-22T00:39:33.871Z,12.30
2018-06-22T00:42:03.182Z,11.90
2018-06-22T00:44:32.510Z,11.90
2018-06-22T00:47:01.822Z,12.50
2018-06-22T00:49:31.139Z,12.60
2018-06-22T00:52:00.449Z,12.70
2018-06-22T00:54:29.810Z,12.70
2018-06-22T00:56:59.091Z,12.60
2018-06-22T00:59:28.420Z,12.40
2018-06-22T01:01:57.740Z,12.60
2018-06-22T01:04:27.131Z,12.60
2018-06-22T01:06:56.448Z,12.40
2018-06-22T01:09:25.816Z,12.50
2018-06-22T01:11:55.252Z,12.40
2018-06-22T01:14:24.653Z,12.20
2018-06-22T01:16:54.139Z,12.10
2018-06-22T01:19:23.488Z,12.20
2018-06-22T01:21:52.904Z,12.10
2018-06-22T01:24:22.263Z,12.20
2018-06-22T01:26:51.570Z,11.90
2018-06-22T01:29:26.310Z,12.10
2018-06-22T01:31:55.667Z,12.00
2018-06-22T01:36:53.902Z,11.80
2018-06-22T01:39:23.208Z,11.80
2018-06-22T01:41:52.808Z,11.90
2018-06-22T01:44:22.135Z,12.00
2018-06-22T01:51:49.256Z,11.90
2018-06-22T01:54:18.610Z,11.80
2018-06-22T01:56:47.976Z,11.80
2018-06-22T01:59:17.292Z,11.80
2018-06-22T02:01:46.664Z,11.70
2018-06-22T02:04:16.019Z,11.60
2018-06-22T02:06:45.385Z,11.30
2018-06-22T02:09:14.720Z,11.10
2018-06-22T02:11:44.092Z,10.60
2018-06-22T02:14:13.411Z,10.60
2018-06-22T02:16:42.756Z,10.20
2018-06-22T02:19:12.102Z,10.30
2018-06-22T02:21:41.456Z,10.30
2018-06-22T02:24:10.807Z,10.20
2018-06-22T02:26:40.198Z,10.00
2018-06-22T02:29:09.558Z,9.90
2018-06-22T02:31:38.896Z,9.90
2018-06-22T02:34:08.665Z,9.90
2018-06-22T02:36:38.060Z,9.70
2018-06-22T02:39:09.700Z,9.80
2018-06-22T02:41:39.090Z,9.60
2018-06-22T02:44:08.411Z,9.70
2018-06-22T02:46:37.803Z,9.70
2018-06-22T02:49:07.112Z,9.70
2018-06-22T02:51:36.628Z,9.60
2018-06-22T02:54:06.003Z,9.80
2018-06-22T02:56:35.351Z,9.70
2018-06-22T02:59:04.745Z,9.70
2018-06-22T03:01:34.052Z,9.80
2018-06-22T03:04:03.390Z,9.80
2018-06-22T03:06:32.752Z,9.90
2018-06-22T03:09:02.093Z,10.00
2018-06-22T03:11:31.481Z,10.10
2018-06-22T03:14:00.827Z,9.90
2018-06-22T03:16:30.183Z,9.80
2018-06-22T03:18:59.569Z,9.70
2018-06-22T03:21:28.960Z,9.60
2018-06-22T03:23:58.339Z,9.50
2018-06-22T03:26:28.034Z,9.50
2018-06-22T03:28:57.812Z,9.50
2018-06-22T03:31:27.246Z,9.40
2018-06-22T03:33:56.606Z,9.30
2018-06-22T03:36:26.041Z,9.40
2018-06-22T03:38:55.358Z,9.40
2018-06-22T03:41:24.879Z,9.50
2018-06-22T03:43:54.295Z,9.40
2018-06-22T03:46:23.646Z,9.50
2018-06-22T03:48:52.972Z,9.60
2018-06-22T03:51:22.540Z,9.40
2018-06-22T03:53:51.903Z,9.50
2018-06-22T03:56:21.415Z,9.50
2018-06-22T03:58:50.772Z,9.60
2018-06-22T04:01:20.138Z,9.50
2018-06-22T04:03:49.485Z,9.50
2018-06-22T04:06:18.936Z,9.60
2018-06-22T04:08:48.495Z,9.60
2018-06-22T04:11:17.874Z,9.70
2018-06-22T04:13:47.316Z,9.80
2018-06-22T04:18:45.665Z,10.00
2018-06-22T04:21:15.077Z,9.80
2018-06-22T04:23:44.657Z,9.90
2018-06-22T04:26:14.040Z,10.00
2018-06-22T04:28:43.434Z,10.10
2018-06-22T04:31:12.811Z,10.30
2018-06-22T04:33:42.152Z,10.30
2018-06-22T04:36:11.573Z,10.50
2018-06-22T04:38:40.934Z,10.60
2018-06-22T04:41:11.465Z,10.70
2018-06-22T04:43:40.857Z,10.60
2018-06-22T04:46:10.178Z,10.60
2018-06-22T04:51:08.953Z,10.80
2018-06-22T04:53:38.308Z,10.80
2018-06-22T04:56:07.673Z,10.70
2018-06-22T04:58:37.043Z,10.70
2018-06-22T05:01:06.491Z,10.90
2018-06-22T05:08:33.926Z,11.50
2018-06-22T05:11:03.348Z,11.80
2018-06-22T05:13:33.092Z,12.10
2018-06-22T05:16:02.459Z,12.40
2018-06-22T05:18:31.845Z,12.50
2018-06-22T05:21:01.198Z,12.60
2018-06-22T05:23:30.570Z,12.30
2018-06-22T05:25:59.915Z,12.50
2018-06-22T05:28:29.271Z,12.30
2018-06-22T05:30:58.632Z,12.20
2018-06-22T05:33:28.412Z,12.60
2018-06-22T05:35:57.837Z,12.70
2018-06-22T05:38:27.214Z,12.80
2018-06-22T05:40:56.662Z,12.80
2018-06-22T05:43:26.013Z,12.80
2018-06-22T05:45:55.512Z,12.60
2018-06-22T05:48:24.884Z,12.90
2018-06-22T05:50:54.308Z,13.10
2018-06-22T05:53:23.727Z,13.10
2018-06-22T05:55:53.044Z,13.20
2018-06-22T05:58:22.325Z,13.30
2018-06-22T06:00:52.676Z,13.40
2018-06-22T06:03:21.998Z,13.50
2018-06-22T06:08:20.404Z,13.10
2018-06-22T06:13:18.723Z,13.20
2018-06-22T06:15:48.101Z,13.50
2018-06-22T06:18:17.424Z,14.00
2018-06-22T06:20:46.891Z,13.80
2018-06-22T06:23:16.259Z,14.10
2018-06-22T06:25:45.636Z,13.90
2018-06-22T06:28:14.987Z,13.60
2018-06-22T06:30:44.356Z,14.00
2018-06-22T06:33:13.707Z,14.00
2018-06-22T06:35:43.064Z,14.40
2018-06-22T06:38:12.413Z,14.80
2018-06-22T06:40:41.789Z,14.50
2018-06-22T06:43:11.125Z,13.90
2018-06-22T06:45:40.539Z,13.40
2018-06-22T06:48:10.352Z,13.50
2018-06-22T06:50:39.723Z,13.20
2018-06-22T06:53:09.061Z,14.10
2018-06-22T06:55:38.452Z,14.50
2018-06-22T06:58:07.793Z,14.50
2018-06-22T07:00:37.164Z,14.50
2018-06-22T07:03:07.455Z,15.00
2018-06-22T07:05:36.892Z,15.00
2018-06-22T07:08:06.499Z,15.20
2018-06-22T07:10:35.895Z,15.30
2018-06-22T07:13:05.241Z,15.50
2018-06-22T07:15:39.203Z,15.30
2018-06-22T07:18:09.096Z,15.40
2018-06-22T07:20:38.668Z,15.20
2018-06-22T07:23:08.633Z,15.40
2018-06-22T07:25:37.948Z,15.50
2018-06-22T07:28:07.263Z,15.50
2018-06-22T07:30:36.605Z,15.40
2018-06-22T07:33:05.960Z,15.50
2018-06-22T07:35:35.249Z,15.50
2018-06-22T07:38:05.575Z,15.70
2018-06-22T07:40:35.081Z,14.80
2018-06-22T07:43:04.411Z,15.00
2018-06-22T07:45:33.695Z,15.50
2018-06-22T07:48:03.006Z,15.30
2018-06-22T07:50:32.339Z,15.10
2018-06-22T07:53:01.690Z,14.90
2018-06-22T07:57:59.860Z,15.10
2018-06-22T08:00:29.200Z,14.90
2018-06-22T08:02:58.569Z,15.10
2018-06-22T08:05:27.907Z,15.90
2018-06-22T08:07:57.312Z,16.40
2018-06-22T08:10:26.666Z,15.90
2018-06-22T08:12:55.933Z,15.30
2018-06-22T08:15:25.242Z,15.30
2018-06-22T08:17:54.618Z,16.00
2018-06-22T08:20:23.936Z,16.50
2018-06-22T08:22:53.373Z,16.40
2018-06-22T08:27:51.603Z,15.40
2018-06-22T08:30:21.020Z,16.00
2018-06-22T08:32:50.339Z,16.40
2018-06-22T08:35:19.641Z,17.50
2018-06-22T08:37:49.441Z,17.50
2018-06-22T08:40:18.779Z,17.20
2018-06-22T08:42:48.107Z,16.00
2018-06-22T08:45:17.472Z,15.70
2018-06-22T08:47:46.833Z,16.00
2018-06-22T08:50:16.164Z,16.10
2018-06-22T08:52:45.545Z,16.20
2018-06-22T08:55:14.879Z,16.10
2018-06-22T08:57:44.236Z,16.20
2018-06-22T09:00:13.672Z,15.60
2018-06-22T09:02:43.008Z,15.50
2018-06-22T09:05:12.379Z,15.90
2018-06-22T09:07:41.792Z,15.80
2018-06-22T09:10:11.129Z,15.70
2018-06-22T09:12:40.470Z,15.20
2018-06-22T09:15:10.183Z,14.50
2018-06-22T09:17:39.515Z,15.10
2018-06-22T09:20:08.824Z,15.30
2018-06-22T09:22:39.377Z,15.00
2018-06-22T09:25:08.800Z,15.20
2018-06-22T09:27:38.195Z,15.00
2018-06-22T09:30:07.547Z,14.60
2018-06-22T09:32:37.388Z,14.70
2018-06-22T09:35:07.758Z,14.10
2018-06-22T09:37:37.833Z,14.30
2018-06-22T09:40:07.376Z,14.20
2018-06-22T09:42:37.412Z,13.90
2018-06-22T09:45:06.886Z,13.50
2018-06-22T09:47:36.585Z,13.60
2018-06-22T09:52:35.332Z,13.10
2018-06-22T09:55:04.947Z,13.30
2018-06-22T09:57:34.379Z,13.10
2018-06-22T10:00:03.734Z,13.40
2018-06-22T10:02:33.211Z,13.40
2018-06-22T10:05:02.649Z,13.20
2018-06-22T10:07:32.264Z,13.10
2018-06-22T10:10:01.781Z,13.30
2018-06-22T10:12:31.454Z,13.40
2018-06-22T10:15:01.260Z,13.70
2018-06-22T10:17:30.647Z,13.80
2018-06-22T10:19:59.957Z,13.90
2018-06-22T10:22:29.364Z,13.70
2018-06-22T10:24:58.678Z,14.10
2018-06-22T10:27:28.066Z,14.40
2018-06-22T10:29:57.432Z,14.00
2018-06-22T10:32:26.845Z,14.10
2018-06-22T10:37:25.272Z,14.40
2018-06-22T10:39:54.723Z,14.30
2018-06-22T10:42:24.149Z,14.20
2018-06-22T10:44:53.572Z,13.50
2018-06-22T10:47:23.059Z,13.90
2018-06-22T10:49:52.543Z,14.30
2018-06-22T10:52:21.974Z,14.50
2018-06-22T10:54:51.351Z,15.10
2018-06-22T10:57:20.932Z,15.70
2018-06-22T10:59:50.413Z,16.30
2018-06-22T11:02:19.815Z,16.80
2018-06-22T11:04:49.271Z,16.80
2018-06-22T11:09:47.553Z,16.50
2018-06-22T11:12:16.958Z,16.80
2018-06-22T11:14:46.352Z,17.00
2018-06-22T11:17:15.724Z,16.80
2018-06-22T11:22:14.033Z,16.30
2018-06-22T11:24:43.415Z,16.40
2018-06-22T11:27:12.757Z,16.20
2018-06-22T11:29:44.016Z,16.30
2018-06-22T11:32:13.540Z,16.30
2018-06-22T11:34:42.984Z,15.70
2018-06-22T11:37:12.346Z,15.40
2018-06-22T11:39:41.689Z,14.80
2018-06-22T11:42:11.041Z,14.80
2018-06-22T11:44:40.418Z,14.60
2018-06-22T11:47:09.759Z,14.80
2018-06-22T11:49:39.131Z,15.60
2018-06-22T11:52:08.492Z,16.00
2018-06-22T11:54:37.863Z,16.60
2018-06-22T11:57:07.266Z,17.00
2018-06-22T11:59:36.670Z,16.50
2018-06-22T12:02:06.111Z,15.40
2018-06-22T12:04:35.576Z,14.50
2018-06-22T12:07:04.986Z,14.20
2018-06-22T12:09:34.331Z,14.00
2018-06-22T12:12:04.031Z,14.80
2018-06-22T12:14:33.372Z,15.80
2018-06-22T12:17:02.839Z,16.70
2018-06-22T12:19:32.266Z,16.90
2018-06-22T12:22:01.644Z,16.60
2018-06-22T12:24:31.016Z,16.70
2018-06-22T12:27:00.375Z,15.90
2018-06-22T12:29:29.720Z,15.60
2018-06-22T12:31:59.070Z,15.60
2018-06-22T12:34:28.400Z,15.90
2018-06-22T12:36:57.772Z,16.70
2018-06-22T12:39:27.104Z,17.40
2018-06-22T12:41:56.542Z,16.60
2018-06-22T12:44:25.920Z,16.40
2018-06-22T12:49:24.206Z,15.80
2018-06-22T12:51:53.570Z,15.60
2018-06-22T12:54:22.920Z,15.70
2018-06-22T12:56:52.247Z,15.80
2018-06-22T12:59:21.628Z,15.90
2018-06-22T13:01:51.086Z,15.70
2018-06-22T13:04:20.463Z,15.70
2018-06-22T13:06:49.774Z,15.40
2018-06-22T13:09:19.218Z,15.10
2018-06-22T13:11:48.470Z,14.60
2018-06-22T13:14:18.492Z,14.50
2018-06-22T13:16:47.816Z,14.30
2018-06-22T13:19:17.143Z,14.00
2018-06-22T13:21:51.618Z,14.60
2018-06-22T13:24:22.176Z,16.10
2018-06-22T13:26:51.439Z,17.20
2018-06-22T13:29:20.755Z,17.60
2018-06-22T13:31:50.065Z,17.80
2018-06-22T13:34:19.394Z,17.90
2018-06-22T13:36:48.998Z,17.50
2018-06-22T13:39:19.261Z,17.40
2018-06-22T13:41:48.837Z,17.40
2018-06-22T13:44:18.193Z,17.60
2018-06-22T13:46:47.488Z,17.50
2018-06-22T13:49:17.915Z,17.60
2018-06-22T13:51:47.276Z,17.20
2018-06-22T13:54:16.621Z,16.70
2018-06-22T13:56:45.955Z,15.90
2018-06-22T13:59:15.247Z,15.90
2018-06-22T14:01:44.659Z,15.80
2018-06-22T14:04:19.451Z,15.70
2018-06-22T14:06:56.179Z,15.70
2018-06-22T14:09:26.718Z,15.60
2018-06-22T14:11:56.181Z,15.60
2018-06-22T14:14:25.537Z,15.60
2018-06-22T14:16:54.980Z,15.90
2018-06-22T14:19:24.705Z,16.10
2018-06-22T14:21:54.105Z,16.40
2018-06-22T14:24:23.451Z,16.60
2018-06-22T14:26:52.862Z,16.10
2018-06-22T14:31:52.032Z,14.50
2018-06-22T14:34:21.475Z,14.10
2018-06-22T14:36:50.905Z,14.20
2018-06-22T14:39:20.264Z,14.70
2018-06-22T14:41:49.680Z,14.80
2018-06-22T14:44:19.036Z,15.00
2018-06-22T14:46:48.436Z,15.30
2018-06-22T14:49:17.781Z,15.30
2018-06-22T14:51:47.208Z,15.10
2018-06-22T14:54:21.956Z,14.60
2018-06-22T14:56:56.659Z,14.60
2018-06-22T14:59:31.406Z,14.70
2018-06-22T15:02:06.151Z,14.70
2018-06-22T15:04:40.735Z,14.80
2018-06-22T15:07:15.080Z,14.90
2018-06-22T15:09:44.404Z,15.00
2018-06-22T15:12:13.746Z,15.00
2018-06-22T15:14:43.103Z,15.00
2018-06-22T15:17:13.367Z,14.90
2018-06-22T15:19:44.245Z,14.90
2018-06-22T15:22:14.220Z,14.90
2018-06-22T15:24:43.575Z,14.90
2018-06-22T15:27:12.902Z,14.80
2018-06-22T15:32:11.291Z,15.20
2018-06-22T15:34:45.919Z,15.20
2018-06-22T15:37:20.437Z,15.00
2018-06-22T15:39:55.140Z,15.10
2018-06-22T15:42:29.770Z,14.70
2018-06-22T15:45:04.451Z,14.70
2018-06-22T15:47:40.103Z,14.40
2018-06-22T15:50:14.903Z,14.70
2018-06-22T15:54:54.008Z,14.80
2018-06-22T15:59:52.373Z,15.10
2018-06-22T16:02:26.916Z,15.10
2018-06-22T16:04:56.310Z,15.10
2018-06-22T16:12:36.575Z,15.10
2018-06-22T16:15:13.603Z,15.20
2018-06-22T16:17:48.266Z,15.30
2018-06-22T16:20:33.500Z,15.30
2018-06-22T16:23:08.998Z,15.20
2018-06-22T16:27:46.041Z,15.10
2018-06-22T16:35:13.136Z,15.40
2018-06-22T16:37:42.448Z,15.50
2018-06-22T16:40:11.763Z,15.50
2018-06-22T16:42:41.143Z,15.50
2018-06-22T16:45:10.439Z,15.50
2018-06-22T16:47:39.794Z,15.50
2018-06-22T16:50:09.957Z,15.50
2018-06-22T16:52:40.608Z,15.60
2018-06-22T16:55:10.498Z,15.50
2018-06-22T16:57:40.102Z,15.40
2018-06-22T17:00:10.227Z,15.40
2018-06-22T17:02:39.598Z,15.40
2018-06-22T17:05:09.239Z,15.20
2018-06-22T17:07:43.864Z,15.30
2018-06-22T17:10:18.528Z,15.40
2018-06-22T17:12:53.300Z,15.20
2018-06-22T17:15:27.844Z,15.20
2018-06-22T17:18:02.457Z,15.30
2018-06-22T17:20:31.839Z,15.40
2018-06-22T17:23:01.196Z,15.30
2018-06-22T17:25:30.586Z,15.10
2018-06-22T17:27:59.948Z,15.00
2018-06-22T17:30:29.359Z,15.10
2018-06-22T17:32:58.734Z,15.20
2018-06-22T17:35:28.112Z,15.20
2018-06-22T17:37:57.515Z,15.40
2018-06-22T17:40:26.914Z,15.30
2018-06-22T17:42:56.299Z,15.20
2018-06-22T17:45:25.677Z,15.10
2018-06-22T17:47:55.047Z,15.20
2018-06-22T17:50:29.927Z,15.30
2018-06-22T17:52:59.843Z,15.20
2018-06-22T17:55:29.203Z,15.20
2018-06-22T17:57:58.542Z,15.30
2018-06-22T18:00:33.169Z,15.30
2018-06-22T18:05:13.305Z,15.40
2018-06-22T18:07:44.545Z,15.30
2018-06-22T18:10:19.732Z,15.10
2018-06-22T18:12:52.052Z,15.10
2018-06-22T18:15:21.398Z,15.10
2018-06-22T18:17:50.778Z,14.80
2018-06-22T18:22:49.195Z,14.40
2018-06-22T18:25:18.552Z,14.40
2018-06-22T18:27:47.939Z,14.50
2018-06-22T18:30:17.773Z,14.60
2018-06-22T18:32:47.139Z,14.60
2018-06-22T18:35:16.594Z,14.50
2018-06-22T18:40:14.929Z,14.50
2018-06-22T18:42:44.309Z,14.30
2018-06-22T18:45:13.800Z,14.40
2018-06-22T18:47:43.216Z,14.30
2018-06-22T18:50:12.625Z,14.30
2018-06-22T18:52:47.205Z,14.10
2018-06-22T18:55:21.895Z,14.00
2018-06-22T18:57:56.413Z,14.00
2018-06-22T19:00:31.065Z,14.00
2018-06-22T19:03:05.687Z,14.00
2018-06-22T19:05:35.060Z,13.90
2018-06-22T19:08:04.469Z,13.90
2018-06-22T19:10:33.816Z,13.80
2018-06-22T19:13:03.277Z,13.70
2018-06-22T19:15:32.611Z,13.80
2018-06-22T19:18:02.051Z,13.90
2018-06-22T19:20:31.466Z,13.80
2018-06-22T19:23:00.931Z,13.80
2018-06-22T19:25:30.294Z,13.60
2018-06-22T19:27:59.661Z,13.40
2018-06-22T19:30:29.028Z,13.50
2018-06-22T19:32:58.367Z,13.30
2018-06-22T19:35:27.703Z,13.10
2018-06-22T19:37:57.021Z,13.10
2018-06-22T19:40:26.374Z,12.90
2018-06-22T19:42:55.814Z,12.80
2018-06-22T19:45:30.425Z,12.70
2018-06-22T19:48:04.920Z,12.70
2018-06-22T19:50:39.527Z,12.90
2018-06-22T19:53:14.167Z,13.00
2018-06-22T19:55:43.508Z,12.90
2018-06-22T19:58:12.907Z,12.80
2018-06-22T20:00:42.258Z,12.70
2018-06-22T20:03:11.549Z,12.60
2018-06-22T20:05:40.904Z,12.60
2018-06-22T20:08:10.269Z,12.70
2018-06-22T20:10:39.585Z,12.60
2018-06-22T20:13:08.988Z,12.50
2018-06-22T20:15:38.395Z,12.70
2018-06-22T20:18:07.788Z,12.80
2018-06-22T20:20:37.172Z,12.70
2018-06-22T20:23:06.522Z,12.60
2018-06-22T20:25:40.939Z,12.70
2018-06-22T20:28:10.491Z,12.60
2018-06-22T20:30:39.891Z,12.60
2018-06-22T20:33:09.315Z,12.60
2018-06-22T20:35:43.861Z,12.60
2018-06-22T20:38:18.436Z,12.60
2018-06-22T20:40:53.077Z,12.60
2018-06-22T20:43:27.748Z,12.60
2018-06-22T20:45:58.479Z,12.70
2018-06-22T20:48:33.068Z,12.60
2018-06-22T20:51:02.400Z,12.60
2018-06-22T20:53:31.768Z,12.50
2018-06-22T20:56:01.132Z,12.60
2018-06-22T20:58:30.520Z,12.80
2018-06-22T21:00:59.839Z,12.80
2018-06-22T21:03:29.228Z,12.80
2018-06-22T21:05:58.580Z,12.80
2018-06-22T21:08:27.929Z,12.90
2018-06-22T21:10:57.275Z,12.90
2018-06-22T21:13:26.711Z,12.90
2018-06-22T21:15:56.009Z,13.10
2018-06-22T21:18:25.368Z,13.20
2018-06-22T21:21:00.032Z,13.20
2018-06-22T21:23:29.367Z,13.40
2018-06-22T21:25:58.858Z,13.20
2018-06-22T21:28:33.431Z,13.00
2018-06-22T21:31:07.896Z,12.80
2018-06-22T21:33:42.579Z,12.70
2018-06-22T21:36:17.169Z,12.80
2018-06-22T21:38:51.800Z,12.80
2018-06-22T21:41:21.206Z,12.70
2018-06-22T21:43:50.612Z,12.70
2018-06-22T21:46:19.952Z,12.70
2018-06-22T21:48:49.328Z,12.70
2018-06-22T21:51:18.808Z,12.60
2018-06-22T21:53:48.195Z,12.60
2018-06-22T21:56:17.564Z,12.70
2018-06-22T22:01:15.776Z,12.70
2018-06-22T22:03:45.116Z,12.60
2018-06-22T22:06:14.589Z,12.50
2018-06-22T22:08:43.961Z,12.40
2018-06-22T22:11:13.357Z,12.50
2018-06-22T22:16:12.048Z,12.60
2018-06-22T22:18:41.384Z,12.50
2018-06-22T22:21:10.871Z,12.50
2018-06-22T22:23:40.235Z,12.50
2018-06-22T22:26:09.603Z,12.40
2018-06-22T22:28:38.930Z,12.40
2018-06-22T22:31:08.342Z,12.50
2018-06-22T22:33:37.727Z,12.40
2018-06-22T22:36:07.113Z,12.30
2018-06-22T22:38:36.475Z,12.40
2018-06-22T22:41:05.951Z,12.50
2018-06-22T22:43:35.324Z,12.60
2018-06-22T22:46:04.735Z,12.70
2018-06-22T22:51:04.208Z,12.50
2018-06-22T22:53:33.627Z,12.70
2018-06-22T22:56:03.081Z,12.50
2018-06-22T22:58:32.439Z,12.40
2018-06-22T23:01:01.833Z,12.30
2018-06-22T23:03:31.624Z,12.30
2018-06-22T23:06:01.067Z,12.40
2018-06-22T23:08:30.894Z,12.30
2018-06-22T23:11:00.307Z,12.20
2018-06-22T23:13:29.659Z,12.30
2018-06-22T23:15:59.012Z,12.40
2018-06-22T23:18:28.759Z,12.30
2018-06-22T23:20:58.385Z,12.20
2018-06-22T23:23:33.588Z,12.00
2018-06-22T23:26:03.559Z,11.80
2018-06-22T23:28:32.920Z,11.70
2018-06-22T23:31:03.351Z,11.70
2018-06-22T23:33:33.101Z,11.60
2018-06-22T23:36:03.511Z,11.80
2018-06-22T23:38:33.479Z,11.70
2018-06-22T23:41:02.898Z,11.70
2018-06-22T23:43:33.539Z,11.70
2018-06-22T23:46:03.250Z,11.70
2018-06-22T23:48:32.611Z,11.50
2018-06-22T23:51:02.074Z,11.50
2018-06-22T23:53:31.433Z,11.30
2018-06-22T23:56:00.802Z,11.30
2018-06-22T23:58:30.167Z,11.30
